Chatfield, Minnesota
Current Conditions -  °F | °C
As of 8:36 PM on Wednesday 22 Oct 2014 (Local Time) from KFKA Reporting Station
Overcast Overcast  
Wind Chill: 52°   Ceiling: 3300
Heat Index: 52°   Visibility: 10mi
Dew Point: 37°   Wind: 12mph
Humidity: 57%   Direction: 150°SSE
Pressure: 30.14"   Gusts: 17mph
Location:  43.85°N, 92.19°W
Report Text: KFKA 230136Z AUTO 15010G15KT 10SM OVC033 11/03 A3014 RMK AO2 T01110028
Loading
Personal Weather Stations






























Interactive Weather Map
Tropical Storm Tracking
New forecast layout! Learn more

10-Day Weather Forecast

Advertisements
Track Severe Weather on mobile